Thursday, July 24, 2014
00:23 UTC
  |  Log In   |  Register Free
Airport Search:

Bishop International Airport
(KFNT)

Bishop International Airport Diagram
No Airport Diagram Available

FAA data valid effective May 29, 2014 until July 24, 2014 (unless otherwise noted).

 
 
 
 
 
 
 
 
 
 
 
 
 
 

Current Aviation Weather for Bishop International Airport (KFNT)

The most recent METAR observation for KFNT was updated at: 2253 UTC
METAR Summary (Translated METAR)
KFNT
232253Z 01011KT 10SM BKN040 BKN048 23/13 A3006 RMK AO2 SLP177 T02330128
KRNP
(17.4 nm NW from KFNT)
232334Z AUTO 02006KT 10SM SCT030 SCT038 OVC060 20/14 A3007 RMK AO2 T02030139
TAF Summary (Translated TAF)
KFNT
231733Z 2318/2418 01013KT P6SM BKN030 FM232200 01011KT P6SM SCT040 FM240200 36005KT P6SM SKC FM241400 02007KT P6SM BKN060
KPTK
(23 nm SE from KFNT)
231733Z 2318/2418 01014KT P6SM BKN030 FM232200 01011KT P6SM BKN040 FM240200 35006KT P6SM SKC FM241400 02007KT P6SM BKN060
  Airport Weather Conditions for KFNT

 Current Weather at FNT
70° F
Overcast
North winds at 15.0 mph
FNT NOAA Radar

Pressure: 30.08 in
Humidity: 59%
Wind: North at 15.0 MPH (13 KT)
Dew Point: 55.0°F
Visibility: 10.00 mi


Airport Weather Forecast for KFNT

Translated METAR and TAF for KFNT
Translated METAR for KFNT (0016 UTC 24 July 2014)
found at http://aviationweather.gov/adds/metars/
 
METAR text: KFNT 232353Z 02013KT 10SM OVC060 21/13 A3008 RMK AO2 SLP182 T02110128 10239 20211 53005
Conditions at: KFNT (FLINT , MI, US) observed 2353 UTC 23 July 2014
Temperature: 21.1°C (70°F)
Dewpoint: 12.8°C (55°F) [RH = 59%]
Pressure (altimeter): 30.08 inches Hg (1018.7 mb)
[Sea-level pressure: 1018.2 mb]
Winds: from the NNE (20 degrees) at 15 MPH (13 knots; 6.8 m/s)
Visibility: 10 or more miles (16+ km)
Ceiling: 6000 feet AGL
Clouds: overcast cloud deck at 6000 feet AGL
Weather: no significant weather observed at this time
Translated TAF for KFNT
Forecast for: KFNT (FLINT , MI, US)
TAF Text: KFNT 232320Z 2400/2424 01010KT P6SM SCT040
Forecast period: 0000 to 0200 UTC 24 July 2014
Forecast type: FROM: standard forecast or significant change
Winds: from the N (10 degrees) at 12 MPH (10 knots; 5.2 m/s)
Visibility: 6 or more miles (10+ km)
Clouds: scattered clouds at 4000 feet AGL
Weather: no significant weather forecast for this period
TAF Text: FM240200 33006KT P6SM SKC
Forecast period: 0200 to 1400 UTC 24 July 2014
Forecast type: FROM: standard forecast or significant change
Winds: from the NNW (330 degrees) at 7 MPH (6 knots; 3.1 m/s)
Visibility: 6 or more miles (10+ km)
Clouds: clear skies
Weather: no significant weather forecast for this period
TAF Text: FM241400 35007KT P6SM SCT045
Forecast period: 1400 to 2100 UTC 24 July 2014
Forecast type: FROM: standard forecast or significant change
Winds: from the N (350 degrees) at 8 MPH (7 knots; 3.6 m/s)
Visibility: 6 or more miles (10+ km)
Clouds: scattered clouds at 4500 feet AGL
Weather: no significant weather forecast for this period
TAF Text: FM242100 31007KT P6SM FEW060
Forecast period: 2100 UTC 24 July 2014 to 0000 UTC 25 July 2014
Forecast type: FROM: standard forecast or significant change
Winds: from the NW (310 degrees) at 8 MPH (7 knots; 3.6 m/s)
Visibility: 6 or more miles (10+ km)
Clouds: few clouds at 6000 feet AGL
Weather: no significant weather forecast for this period

Find All Airport Services Find A Hotel Find A Rental Car Find A Golf Course Find A Restaurant $100 Hamburger



FBO's on the Field
FBO Company Facility Photos Services Transportation Aviation Fuel Prices: Prices include tax
Catering Weather Repair Courtesy Rental Type 100LL JetA JetA+ MOGAS 8087
 
Avflight Flint

This FBO has not yet been rated
FS:Avfuel
Last Updated: Jul-21
Login to update fuel prices
SS:
Contact Avflight FlintMore FBO Information
 
Add another FBO Facility Photos Catering Weather Repair Courtesy Rental Type 100LL JetA JetA+ MOGAS 8087
Services Transportation Aviation Fuel Prices: Prices include tax


GlobalAir.com Airport Resource Center model-print
model-print
model-print
model-print